Time;durP1;ratioP1;P1;durP2;ratioP2;P2;SDS_P1;SDS_P2;PMS_P1;PMS_P2;Temp;Humidity;BMP_temperature;BMP_pressure;BME280_temperature;BME280_humidity;BME280_pressure;Samples;Min_cycle;Max_cycle;Signal;HPM_P1;HPM_P2
2021/12/15 00:00:26;;;;;;;;;49.50;40.00;;;;;10.76;68.93;102951.63;5050748;28;49920;-71
2021/12/15 00:02:52;;;;;;;;;43.25;37.75;;;;;10.29;68.75;102879.00;5050526;28;49612;-69
2021/12/15 00:05:22;;;;;;;;;41.75;37.50;;;;;10.60;69.28;102957.75;5050782;28;49901;-69
2021/12/15 00:07:55;;;;;;;;;46.75;41.00;;;;;10.74;69.57;102942.75;5050352;28;50814;-70
2021/12/15 00:10:22;;;;;;;;;46.25;37.50;;;;;10.65;69.20;102917.72;5049616;28;49800;-71
2021/12/15 00:12:48;;;;;;;;;53.25;44.00;;;;;10.74;68.77;102940.13;5050599;28;49700;-68
2021/12/15 00:15:15;;;;;;;;;51.00;42.75;;;;;10.71;69.40;102941.66;5049782;28;49595;-67
2021/12/15 00:17:40;;;;;;;;;49.75;40.75;;;;;10.72;69.03;102941.78;5050323;28;49640;-70
2021/12/15 00:20:09;;;;;;;;;46.25;38.25;;;;;10.78;68.94;102941.19;5050300;28;49923;-69
2021/12/15 00:22:36;;;;;;;;;47.50;39.00;;;;;10.79;68.67;102946.53;5050385;28;50208;-71
2021/12/15 00:25:07;;;;;;;;;57.75;41.25;;;;;10.77;69.23;102942.03;5050566;28;49750;-65
2021/12/15 00:27:32;;;;;;;;;52.00;42.75;;;;;10.79;68.77;102943.91;5049963;28;50731;-65
2021/12/15 00:29:58;;;;;;;;;46.75;40.00;;;;;10.78;68.47;102941.19;5050480;28;49845;-64
2021/12/15 00:32:23;;;;;;;;;52.00;40.00;;;;;10.81;68.98;102944.00;5050251;28;49732;-66
2021/12/15 00:34:51;;;;;;;;;44.25;37.50;;;;;10.58;68.37;102909.50;5050231;28;49766;-65
2021/12/15 00:37:18;;;;;;;;;47.25;41.25;;;;;10.75;67.96;102941.94;5050009;28;50347;-65
2021/12/15 00:39:43;;;;;;;;;43.75;37.25;;;;;10.76;68.25;102940.22;5050269;28;49943;-69
2021/12/15 00:42:09;;;;;;;;;46.25;39.00;;;;;10.66;68.39;102920.41;5049988;28;49576;-69
2021/12/15 00:44:35;;;;;;;;;48.75;39.50;;;;;10.78;68.24;102934.22;5050316;28;50194;-70
2021/12/15 00:47:03;;;;;;;;;50.75;39.50;;;;;10.63;68.24;102911.47;5049882;28;50323;-68
2021/12/15 00:49:29;;;;;;;;;45.75;39.00;;;;;10.79;68.18;102936.03;5050126;28;49972;-66
2021/12/15 00:51:55;;;;;;;;;39.50;36.75;;;;;10.76;68.56;102935.88;5031648;28;49882;-65
2021/12/15 00:54:22;;;;;;;;;50.75;40.25;;;;;10.80;68.34;102940.44;5050077;28;49589;-65
2021/12/15 00:56:49;;;;;;;;;50.50;41.00;;;;;10.62;68.87;102909.69;5049620;28;50025;-65
2021/12/15 00:59:14;;;;;;;;;53.25;39.75;;;;;10.79;69.00;102938.66;5049872;28;49573;-65
2021/12/15 01:01:40;;;;;;;;;45.00;41.00;;;;;10.81;69.60;102939.66;5049960;28;49973;-65
2021/12/15 01:04:08;;;;;;;;;51.00;41.00;;;;;10.82;69.73;102937.94;5050209;28;50196;-65
2021/12/15 01:06:35;;;;;;;;;46.25;39.50;;;;;10.73;68.80;102930.44;5049739;28;49841;-65
2021/12/15 01:09:05;;;;;;;;;49.00;42.00;;;;;10.80;68.90;102943.06;5050031;28;49791;-65
2021/12/15 01:12:04;;;;;;;;;48.00;39.25;;;;;10.62;68.85;102914.94;5049583;28;49836;-65
2021/12/15 01:19:47;;;;;;;;;49.25;39.00;;;;;10.79;69.09;102936.03;5049151;28;50020;-64
2021/12/15 01:20:12;;;;;;;;;52.00;41.75;;;;;10.74;68.83;102939.25;5049663;28;49841;-64
2021/12/15 01:22:42;;;;;;;;;51.75;39.25;;;;;10.75;69.10;102938.41;5049655;28;49750;-65
2021/12/15 01:25:20;;;;;;;;;46.50;39.50;;;;;10.75;68.97;102938.41;5049832;28;49683;-65
2021/12/15 01:27:45;;;;;;;;;43.75;37.25;;;;;10.77;69.60;102940.28;5051711;28;49787;-65
2021/12/15 01:30:15;;;;;;;;;43.50;37.75;;;;;10.78;69.38;102934.22;5052989;28;49743;-65
2021/12/15 01:32:42;;;;;;;;;47.50;37.50;;;;;10.75;68.38;102926.19;5052893;28;49810;-65
2021/12/15 01:35:08;;;;;;;;;50.25;40.50;;;;;10.78;69.42;102938.56;5052854;28;49918;-65
2021/12/15 01:37:34;;;;;;;;;47.25;38.50;;;;;10.77;68.69;102935.03;5052733;28;50727;-65
2021/12/15 01:39:59;;;;;;;;;47.50;37.00;;;;;10.78;69.07;102936.84;5052784;28;49830;-67
2021/12/15 01:42:28;;;;;;;;;46.00;38.00;;;;;10.78;69.69;102931.59;5052706;28;49684;-67
2021/12/15 01:47:37;;;;;;;;;42.50;35.50;;;;;10.77;69.03;102935.03;5052523;28;49853;-69
2021/12/15 01:50:04;;;;;;;;;38.50;33.00;;;;;10.78;68.82;102934.22;5052667;28;49917;-66
2021/12/15 01:52:34;;;;;;;;;39.75;34.00;;;;;10.78;69.29;102942.09;5052375;28;49625;-69
2021/12/15 01:55:13;;;;;;;;;50.50;39.50;;;;;10.60;68.79;102910.47;5052897;28;50018;-65
2021/12/15 01:57:40;;;;;;;;;52.75;43.75;;;;;10.66;68.75;102930.94;5051927;28;50157;-65
2021/12/15 02:00:18;;;;;;;;;43.50;38.00;;;;;10.65;68.93;102944.88;5052492;28;49655;-64
2021/12/15 02:02:44;;;;;;;;;46.00;37.75;;;;;10.59;69.05;102945.44;5052538;28;49693;-65
2021/12/15 02:05:11;;;;;;;;;47.50;39.00;;;;;10.58;69.73;102935.75;5052713;28;49778;-65
2021/12/15 02:07:38;;;;;;;;;47.50;36.50;;;;;10.73;69.32;102948.84;5052262;28;50799;-66
2021/12/15 02:10:06;;;;;;;;;40.75;37.00;;;;;10.56;68.40;102931.25;5033792;28;50585;-66
2021/12/15 02:12:37;;;;;;;;;41.75;38.00;;;;;10.69;68.85;102964.34;5051981;28;49589;-65
2021/12/15 02:15:18;;;;;;;;;41.50;34.50;;;;;10.71;68.97;102957.44;5052264;28;49858;-65
2021/12/15 02:17:44;;;;;;;;;43.75;36.75;;;;;10.23;69.26;102869.88;5050116;28;50649;-65
2021/12/15 02:20:13;;;;;;;;;46.25;38.50;;;;;10.57;69.08;102933.03;5052276;28;49892;-67
2021/12/15 02:22:39;;;;;;;;;45.50;38.50;;;;;10.67;68.87;102969.50;5052558;28;49780;-65
2021/12/15 02:25:09;;;;;;;;;49.00;40.25;;;;;10.55;69.32;102948.72;5052141;28;49742;-65
2021/12/15 02:27:35;;;;;;;;;39.00;36.25;;;;;10.69;68.87;102967.84;5051679;28;49794;-66
2021/12/15 02:30:18;;;;;;;;;44.75;38.50;;;;;10.72;69.44;102962.81;5051976;28;49750;-65
2021/12/15 02:38:42;;;;;;;;;42.50;38.75;;;;;10.76;69.41;102969.13;5008408;28;50226;-65
2021/12/15 02:41:19;;;;;;;;;39.00;36.25;;;;;10.67;69.29;102948.50;5036457;28;49959;-69
2021/12/15 02:43:54;;;;;;;;;45.25;40.50;;;;;10.69;68.99;102954.72;5051730;28;49845;-67
2021/12/15 02:46:20;;;;;;;;;50.75;41.75;;;;;10.74;69.14;102961.16;5051778;28;49826;-69
2021/12/15 02:48:46;;;;;;;;;46.50;39.25;;;;;10.71;69.31;102957.44;5051497;28;49745;-68
2021/12/15 02:51:12;;;;;;;;;42.75;37.25;;;;;10.71;68.98;102955.75;5051587;28;49708;-68
2021/12/15 02:53:38;;;;;;;;;44.25;40.25;;;;;10.72;69.69;102954.00;5051520;28;49760;-67
2021/12/15 02:56:05;;;;;;;;;35.75;32.25;;;;;10.60;69.49;102935.84;5051934;28;49833;-65
2021/12/15 02:58:34;;;;;;;;;41.00;37.50;;;;;10.64;68.80;102936.94;5050954;28;49712;-65
2021/12/15 03:01:07;;;;;;;;;40.75;36.25;;;;;10.72;68.60;102952.28;5051480;28;49863;-65
2021/12/15 03:06:27;;;;;;;;;42.25;36.75;;;;;10.65;69.72;102933.47;5051632;28;49600;-65
2021/12/15 03:09:27;;;;;;;;;40.75;35.25;;;;;10.74;69.46;102948.03;5051244;28;50520;-65
2021/12/15 03:17:21;;;;;;;;;49.75;38.00;;;;;10.74;69.64;102953.28;5030830;28;49844;-65
2021/12/15 03:19:46;;;;;;;;;46.50;38.50;;;;;10.66;69.22;102938.81;5051048;28;50360;-65
2021/12/15 03:22:11;;;;;;;;;45.00;37.75;;;;;10.72;69.31;102954.91;5051084;28;49815;-65
2021/12/15 03:24:37;;;;;;;;;32.75;31.75;;;;;10.73;69.97;102953.19;5051196;28;49723;-65
2021/12/15 03:27:08;;;;;;;;;38.50;35.25;;;;;10.73;69.10;102951.47;5051235;28;49853;-65
2021/12/15 03:35:20;;;;;;;;;50.25;38.00;;;;;10.71;69.05;102957.44;5050993;28;49750;-67
2021/12/15 03:37:53;;;;;;;;;47.75;34.75;;;;;10.68;68.97;102960.81;5051087;28;49734;-65
2021/12/15 03:40:30;;;;;;;;;40.50;37.25;;;;;10.66;68.59;102954.56;5050562;28;49796;-65
2021/12/15 03:43:01;;;;;;;;;20.25;15.00;;;;;10.25;69.23;102892.78;5050760;28;49899;-65
2021/12/15 03:45:35;;;;;;;;;36.75;32.50;;;;;10.71;69.29;102970.56;5050839;28;49674;-65
2021/12/15 03:48:05;;;;;;;;;45.00;36.00;;;;;10.71;68.83;102968.88;5051112;28;49739;-65
2021/12/15 03:50:32;;;;;;;;;39.25;33.00;;;;;10.73;68.83;102964.59;5049507;28;50754;-65
2021/12/15 03:52:58;;;;;;;;;35.00;32.00;;;;;10.56;69.13;102942.66;5050841;28;49911;-65
2021/12/15 03:55:27;;;;;;;;;34.50;33.00;;;;;10.72;68.93;102962.81;5050825;28;49773;-65
2021/12/15 03:57:54;;;;;;;;;35.00;34.00;;;;;10.74;69.39;102966.41;5050547;28;49620;-65
2021/12/15 04:00:21;;;;;;;;;36.25;33.75;;;;;10.73;69.58;102964.59;5049536;28;50720;-65
2021/12/15 04:02:47;;;;;;;;;40.00;32.00;;;;;10.72;69.88;102954.91;5050587;28;49737;-65
2021/12/15 04:05:15;;;;;;;;;34.25;28.75;;;;;10.74;68.76;102968.13;5050884;28;49756;-65
2021/12/15 04:07:41;;;;;;;;;36.00;27.75;;;;;10.61;69.04;102958.66;5050830;28;49620;-65
2021/12/15 04:10:10;;;;;;;;;38.75;32.25;;;;;10.72;68.92;102965.44;5050390;28;49714;-65
2021/12/15 04:12:35;;;;;;;;;39.50;35.50;;;;;10.72;68.84;102960.16;5050260;28;49675;-65
2021/12/15 04:15:28;;;;;;;;;33.50;30.50;;;;;10.73;69.34;102958.44;5050216;28;50220;-65
2021/12/15 04:17:59;;;;;;;;;35.25;33.25;;;;;10.72;68.61;102962.81;5050826;28;49880;-66
2021/12/15 04:20:30;;;;;;;;;35.00;34.25;;;;;10.74;69.49;102965.50;5050354;28;49923;-66
2021/12/15 04:22:56;;;;;;;;;35.75;34.50;;;;;10.71;68.93;102961.00;5050506;28;49706;-65
2021/12/15 04:25:25;;;;;;;;;37.25;33.50;;;;;10.68;68.80;102960.81;5050524;28;49823;-65
2021/12/15 04:28:03;;;;;;;;;34.75;33.00;;;;;10.69;68.75;102957.34;5050374;28;49696;-67
2021/12/15 04:30:31;;;;;;;;;33.50;32.50;;;;;10.72;69.04;102961.91;5050381;28;49762;-64
2021/12/15 04:33:07;;;;;;;;;35.00;34.25;;;;;10.70;69.44;102953.91;5050197;28;49746;-66
2021/12/15 04:35:32;;;;;;;;;38.25;34.75;;;;;10.66;69.19;102948.41;5050262;28;49643;-65
2021/12/15 04:37:58;;;;;;;;;36.50;34.50;;;;;10.74;69.62;102958.53;5050608;28;49737;-65
2021/12/15 04:40:23;;;;;;;;;45.75;32.00;;;;;10.64;69.58;102953.59;5050098;28;50504;-66
2021/12/15 04:42:49;;;;;;;;;49.75;38.75;;;;;10.59;69.84;102934.94;5050081;28;50027;-66
2021/12/15 04:45:18;;;;;;;;;35.00;32.50;;;;;10.72;69.11;102954.91;5050377;28;49768;-67
2021/12/15 04:47:44;;;;;;;;;34.00;32.00;;;;;10.63;69.38;102957.03;5050271;28;50053;-67
2021/12/15 04:50:10;;;;;;;;;34.75;31.75;;;;;10.72;68.64;102964.53;5049995;28;49875;-66
2021/12/15 04:52:39;;;;;;;;;34.00;32.50;;;;;10.57;68.63;102941.81;5049943;28;49770;-67
2021/12/15 04:55:07;;;;;;;;;39.00;35.50;;;;;10.71;68.95;102966.25;5050025;28;49688;-66
2021/12/15 04:57:32;;;;;;;;;43.25;38.00;;;;;10.70;68.26;102977.53;5050099;28;50415;-66
2021/12/15 04:59:57;;;;;;;;;38.75;35.00;;;;;10.65;68.75;102979.03;5049935;28;49784;-65
2021/12/15 05:02:23;;;;;;;;;36.25;33.50;;;;;10.65;68.79;102973.78;5053541;28;49675;-65
2021/12/15 05:04:50;;;;;;;;;41.00;35.25;;;;;10.71;68.67;102978.44;5053670;28;49846;-66
2021/12/15 05:07:17;;;;;;;;;42.25;36.00;;;;;10.71;68.26;102982.00;5053520;28;49699;-65
2021/12/15 05:09:44;;;;;;;;;42.75;36.25;;;;;10.73;68.65;102975.13;5053039;28;50366;-64
2021/12/15 05:12:10;;;;;;;;;42.75;37.75;;;;;10.58;68.76;102961.13;5052922;28;49746;-65
2021/12/15 05:14:36;;;;;;;;;41.50;35.75;;;;;10.74;69.20;102983.91;5053041;28;49679;-65
2021/12/15 05:17:02;;;;;;;;;37.00;33.50;;;;;10.57;69.57;102961.94;5053450;28;49898;-65
2021/12/15 05:19:27;;;;;;;;;35.50;27.25;;;;;10.58;68.51;102961.13;5052909;28;50548;-65
2021/12/15 05:21:57;;;;;;;;;39.50;34.75;;;;;10.70;68.58;102990.69;5053076;28;49846;-65
2021/12/15 05:24:31;;;;;;;;;40.00;37.00;;;;;10.76;69.11;103000.63;5053300;28;49570;-66
2021/12/15 05:27:08;;;;;;;;;42.00;37.25;;;;;10.53;68.85;102959.97;5052978;28;49581;-65
2021/12/15 05:29:34;;;;;;;;;40.25;35.50;;;;;10.70;68.82;102995.94;5052666;28;51253;-64
2021/12/15 05:31:59;;;;;;;;;37.75;35.00;;;;;10.51;68.37;102958.97;5052881;28;49800;-65
2021/12/15 05:34:25;;;;;;;;;40.00;35.25;;;;;10.71;68.12;103005.66;5052320;28;49842;-65
2021/12/15 05:36:52;;;;;;;;;40.50;35.50;;;;;10.72;68.70;102998.69;5053028;28;49934;-65
2021/12/15 05:39:19;;;;;;;;;42.75;35.50;;;;;10.73;68.38;103005.75;5052736;28;49717;-65
2021/12/15 05:41:44;;;;;;;;;34.00;33.00;;;;;10.69;68.94;103004.63;5052582;28;49562;-65
2021/12/15 05:44:10;;;;;;;;;36.50;35.00;;;;;10.74;68.65;103007.53;5052853;28;49782;-65
2021/12/15 05:46:35;;;;;;;;;41.00;37.00;;;;;10.74;69.05;103011.06;5052959;28;49642;-64
2021/12/15 05:49:01;;;;;;;;;45.00;34.50;;;;;10.71;67.51;103015.22;5052513;28;49837;-65
2021/12/15 05:51:27;;;;;;;;;42.00;36.75;;;;;10.45;68.80;102970.03;5052608;28;49826;-65
2021/12/15 05:53:52;;;;;;;;;36.50;27.25;;;;;10.70;68.81;103010.78;5052740;28;49944;-64
2021/12/15 05:56:18;;;;;;;;;43.75;38.75;;;;;10.73;68.58;103008.38;5052763;28;49759;-65
2021/12/15 05:58:45;;;;;;;;;34.50;30.50;;;;;10.75;68.42;103020.75;5052364;28;50348;-64
2021/12/15 06:01:11;;;;;;;;;33.50;32.25;;;;;10.64;69.04;102998.25;5052531;28;49831;-64
2021/12/15 06:03:36;;;;;;;;;37.50;35.00;;;;;10.73;68.63;103017.16;5052527;28;49841;-66
2021/12/15 06:06:02;;;;;;;;;39.50;36.00;;;;;10.71;68.62;103012.59;5052514;28;49624;-68
2021/12/15 06:08:27;;;;;;;;;38.50;34.75;;;;;10.75;68.75;103018.13;5052247;28;51022;-65
2021/12/15 06:10:53;;;;;;;;;51.00;40.50;;;;;10.66;68.78;103003.56;5055513;28;49649;-70
2021/12/15 06:13:22;;;;;;;;;33.00;31.50;;;;;10.72;68.18;103024.94;5051557;28;50417;-66
2021/12/15 06:15:48;;;;;;;;;38.25;33.75;;;;;10.31;68.05;102961.38;5052335;28;49928;-66
2021/12/15 06:18:17;;;;;;;;;41.25;37.50;;;;;10.73;68.61;103038.16;5052102;28;49711;-63
2021/12/15 06:20:45;;;;;;;;;40.00;36.00;;;;;10.72;68.03;103043.34;5052061;28;49819;-62
2021/12/15 06:23:17;;;;;;;;;42.25;37.25;;;;;10.67;67.94;103048.31;5052264;28;49765;-68
2021/12/15 06:25:43;;;;;;;;;38.25;35.00;;;;;10.46;67.77;103010.34;5053117;28;49892;-69
2021/12/15 06:28:09;;;;;;;;;37.75;36.00;;;;;10.65;68.52;103044.69;5056671;28;49766;-66
2021/12/15 06:30:36;;;;;;;;;45.25;36.25;;;;;10.53;68.75;103028.25;5056932;28;49601;-67
2021/12/15 06:33:03;;;;;;;;;38.50;35.00;;;;;10.71;68.08;103052.94;5052061;28;49811;-67
2021/12/15 06:35:28;;;;;;;;;38.25;34.00;;;;;10.72;67.77;103044.25;5063502;28;49722;-65
2021/12/15 06:37:54;;;;;;;;;38.50;36.25;;;;;10.71;67.98;103055.56;5052091;28;50475;-68
2021/12/15 06:40:19;;;;;;;;;48.75;38.50;;;;;10.71;67.82;103052.94;5052063;28;49678;-71
2021/12/15 06:42:44;;;;;;;;;45.25;35.25;;;;;10.49;67.82;103003.53;5051666;28;49818;-68
2021/12/15 06:45:15;;;;;;;;;40.50;37.25;;;;;10.74;67.60;103053.09;5052425;28;49676;-68
2021/12/15 06:57:13;;;;;;;;;47.25;39.75;;;;;10.66;68.23;103043.88;5051537;28;50628;-69
2021/12/15 06:58:39;;;;;;;;;46.25;37.50;;;;;10.38;68.04;103025.63;5049369;28;49838;-72
2021/12/15 07:01:06;;;;;;;;;45.75;37.25;;;;;10.63;68.01;103069.09;5051885;28;49883;-73
2021/12/15 07:03:31;;;;;;;;;36.75;32.00;;;;;10.60;67.90;103075.03;5066824;28;49823;-72
2021/12/15 07:05:58;;;;;;;;;46.00;36.25;;;;;10.60;67.76;103073.31;5056653;28;49689;-73
2021/12/15 07:08:27;;;;;;;;;41.25;36.50;;;;;10.64;68.39;103068.25;5053970;28;50489;-73
2021/12/15 07:10:53;;;;;;;;;52.00;41.00;;;;;10.64;68.12;103074.41;5071601;28;49826;-73
2021/12/15 07:13:19;;;;;;;;;39.50;35.00;;;;;10.62;68.18;103075.16;5073703;28;49652;-71
2021/12/15 07:15:47;;;;;;;;;46.25;38.00;;;;;10.57;68.17;103077.50;5071538;28;49821;-71
2021/12/15 07:18:25;;;;;;;;;45.25;39.25;;;;;10.61;68.20;103076.84;5071369;28;50508;-70
2021/12/15 07:20:51;;;;;;;;;41.75;37.50;;;;;10.50;68.38;103056.94;5072904;28;49901;-73
2021/12/15 07:23:21;;;;;;;;;34.25;30.75;;;;;10.60;67.90;103082.91;5071806;28;49663;-73
2021/12/15 07:25:50;;;;;;;;;41.50;35.00;;;;;10.62;68.52;103090.91;5071799;28;49608;-73
2021/12/15 07:28:18;;;;;;;;;48.75;40.25;;;;;10.56;68.01;103087.09;5071209;28;49827;-71
2021/12/15 07:30:45;;;;;;;;;46.00;36.75;;;;;10.60;68.51;103096.06;5071770;28;49831;-71
2021/12/15 07:33:12;;;;;;;;;51.75;39.75;;;;;10.51;68.09;103092.88;5071263;28;49670;-72
2021/12/15 07:35:38;;;;;;;;;40.25;36.25;;;;;10.50;68.09;103094.63;5072744;28;49769;-71
2021/12/15 07:38:06;;;;;;;;;40.75;35.50;;;;;10.43;67.97;103104.69;5071098;28;50773;-72
2021/12/15 07:40:32;;;;;;;;;42.00;35.75;;;;;10.44;68.81;103104.78;5071238;28;49626;-70
2021/12/15 07:43:08;;;;;;;;;37.50;35.00;;;;;10.44;68.60;103107.41;5071225;28;49763;-70
2021/12/15 07:45:37;;;;;;;;;46.00;36.25;;;;;10.50;68.46;103110.38;5071399;28;49798;-71
2021/12/15 07:48:04;;;;;;;;;38.25;36.00;;;;;10.53;67.74;103113.19;5071381;28;49945;-72
2021/12/15 07:50:32;;;;;;;;;42.75;34.50;;;;;10.51;68.06;103120.06;5070985;28;49793;-72
2021/12/15 07:52:59;;;;;;;;;43.25;35.50;;;;;10.50;67.62;103118.25;5070946;28;49764;-71
2021/12/15 07:55:25;;;;;;;;;38.25;35.75;;;;;10.01;68.09;103041.81;5071170;28;49887;-71
2021/12/15 07:57:52;;;;;;;;;34.75;31.50;;;;;10.48;68.44;103113.72;5070660;28;50468;-72
2021/12/15 08:00:19;;;;;;;;;42.00;36.25;;;;;10.41;68.32;103106.31;5071142;28;49706;-71
2021/12/15 08:02:45;;;;;;;;;37.00;32.25;;;;;10.49;68.85;103118.16;5071094;28;49640;-70
2021/12/15 08:05:11;;;;;;;;;42.25;35.25;;;;;10.47;68.62;103118.09;5073177;28;49809;-71
2021/12/15 08:07:36;;;;;;;;;44.25;39.25;;;;;10.36;68.21;103099.91;5073841;28;49803;-74
2021/12/15 08:10:08;;;;;;;;;45.00;38.00;;;;;10.53;68.38;103122.81;5072659;28;49805;-69
2021/12/15 08:12:33;;;;;;;;;36.00;33.25;;;;;10.52;67.92;103121.00;5073119;28;49763;-69
2021/12/15 08:14:59;;;;;;;;;38.50;35.25;;;;;10.58;68.33;103142.34;5075444;28;49652;-70
2021/12/15 08:17:24;;;;;;;;;40.75;33.75;;;;;10.56;67.65;103130.84;5072292;28;50291;-71
2021/12/15 08:19:50;;;;;;;;;35.50;31.50;;;;;10.54;68.42;103129.84;5070965;28;49744;-74
2021/12/15 08:22:16;;;;;;;;;45.50;35.25;;;;;10.64;68.43;103126.06;5079320;28;49829;-71
2021/12/15 08:24:41;;;;;;;;;45.25;34.75;;;;;10.69;67.51;103130.72;5058974;28;49658;-65
2021/12/15 08:27:06;;;;;;;;;30.50;27.25;;;;;10.52;67.32;103110.50;5067859;28;49995;-71
2021/12/15 08:29:32;;;;;;;;;32.50;30.50;;;;;10.66;67.55;103129.66;5087344;28;49381;-73
2021/12/15 08:31:57;;;;;;;;;38.75;32.25;;;;;10.71;67.41;103137.00;5089163;28;49488;-71
2021/12/15 08:34:23;;;;;;;;;32.25;27.75;;;;;10.74;67.86;103137.19;5083329;28;49587;-74
2021/12/15 08:36:52;;;;;;;;;43.50;35.50;;;;;10.73;67.69;103138.00;5081525;27;49802;-78
2021/12/15 08:39:18;;;;;;;;;39.25;33.25;;;;;10.58;67.40;103106.47;5074701;28;49694;-74
2021/12/15 08:41:43;;;;;;;;;35.75;31.75;;;;;10.66;67.54;103116.53;5074183;28;49771;-77
2021/12/15 08:44:10;;;;;;;;;31.75;28.25;;;;;10.66;67.40;103121.78;5074198;28;49755;-73
2021/12/15 08:46:39;;;;;;;;;39.25;31.75;;;;;10.77;67.72;103131.19;5055822;28;51357;-75
2021/12/15 08:49:07;;;;;;;;;32.00;30.75;;;;;10.77;67.91;103133.81;5074154;28;50007;-71
2021/12/15 08:51:34;;;;;;;;;30.25;28.25;;;;;10.79;67.71;103126.91;5073909;28;49700;-71
2021/12/15 08:54:08;;;;;;;;;33.75;29.00;;;;;10.94;67.11;103132.16;5074073;28;49733;-69
2021/12/15 08:56:34;;;;;;;;;29.25;29.25;;;;;10.39;67.18;103029.16;5073575;28;50071;-72
2021/12/15 08:59:00;;;;;;;;;36.00;31.25;;;;;11.04;66.52;103139.75;5073675;28;49678;-70
2021/12/15 09:01:25;;;;;;;;;37.75;35.00;;;;;11.03;66.62;103140.56;5073766;28;49667;-70
2021/12/15 09:03:51;;;;;;;;;36.00;30.00;;;;;11.02;67.04;103147.56;5072109;28;49928;-69
2021/12/15 09:06:17;;;;;;;;;32.00;29.00;;;;;10.99;66.87;103131.59;5071568;28;50082;-68
2021/12/15 09:08:44;;;;;;;;;28.50;23.50;;;;;11.11;67.11;103139.28;5072320;28;49848;-73
2021/12/15 09:11:15;;;;;;;;;34.00;30.00;;;;;11.21;67.18;103148.59;5071540;28;49858;-69
2021/12/15 09:13:41;;;;;;;;;39.50;33.50;;;;;11.25;66.92;103137.41;5071891;28;50040;-71
2021/12/15 09:16:09;;;;;;;;;41.75;36.75;;;;;10.89;66.79;103068.81;5071750;28;49781;-69
2021/12/15 09:18:36;;;;;;;;;31.00;24.25;;;;;11.31;66.16;103137.75;5073733;28;49939;-71
2021/12/15 09:21:04;;;;;;;;;26.50;25.25;;;;;11.42;66.08;103153.31;5073623;28;49787;-68
2021/12/15 09:23:30;;;;;;;;;30.75;27.50;;;;;11.36;66.14;103125.75;5054957;28;49708;-69
2021/12/15 09:25:55;;;;;;;;;36.00;29.75;;;;;11.47;65.86;103148.28;5034111;28;51231;-69
2021/12/15 09:28:21;;;;;;;;;35.25;28.25;;;;;11.49;65.88;103154.56;5053255;28;49802;-71
2021/12/15 09:30:48;;;;;;;;;32.25;29.25;;;;;11.47;65.94;103151.81;5053083;28;49755;-69
2021/12/15 09:33:17;;;;;;;;;26.75;26.25;;;;;11.51;65.70;103152.91;5053278;28;49739;-65
2021/12/15 09:35:43;;;;;;;;;26.75;26.50;;;;;11.52;65.19;103148.56;5052740;28;49781;-68
2021/12/15 09:38:11;;;;;;;;;25.50;25.25;;;;;11.54;65.29;103158.34;5052507;28;49623;-67
2021/12/15 09:40:39;;;;;;;;;28.25;26.75;;;;;11.30;65.16;103128.97;5053248;28;49890;-69
2021/12/15 09:43:06;;;;;;;;;23.25;21.75;;;;;11.16;65.95;103095.72;5052731;28;49826;-79
2021/12/15 09:45:48;;;;;;;;;28.75;25.75;;;;;11.49;66.02;103149.31;5053270;28;49854;-77
2021/12/15 10:04:51;;;;;;;;;26.00;25.50;;;;;11.95;64.75;103150.06;5052697;28;50046;-73
2021/12/15 10:21:00;;;;;;;;;22.50;22.50;;;;;11.96;64.47;103156.25;5054816;28;49865;-76
2021/12/15 10:23:34;;;;;;;;;25.75;24.75;;;;;11.80;63.84;103117.69;5052898;28;49798;-78
2021/12/15 10:25:59;;;;;;;;;31.25;25.00;;;;;11.67;64.00;103107.28;5050769;28;49771;-70
2021/12/15 10:28:27;;;;;;;;;25.00;21.00;;;;;11.59;63.92;103111.25;5050423;28;50227;-72
2021/12/15 10:31:09;;;;;;;;;21.75;21.75;;;;;11.80;64.19;103127.31;5051000;28;49748;-69
2021/12/15 10:34:03;;;;;;;;;22.50;20.00;;;;;11.75;64.31;103112.13;5051718;28;49758;-73
2021/12/15 10:36:35;;;;;;;;;19.75;18.00;;;;;12.08;64.67;103148.09;5052096;28;49646;-72
2021/12/15 10:39:06;;;;;;;;;22.75;22.50;;;;;11.97;63.66;103129.13;5051537;28;49753;-76
2021/12/15 10:41:35;;;;;;;;;20.00;18.00;;;;;12.09;63.73;103145.56;5056198;28;49896;-71
2021/12/15 10:44:04;;;;;;;;;16.75;15.25;;;;;12.17;64.46;103148.59;5051513;28;49830;-69
2021/12/15 10:46:35;;;;;;;;;21.25;19.75;;;;;12.25;63.77;103149.88;5052122;28;49761;-68
2021/12/15 10:49:13;;;;;;;;;16.25;16.25;;;;;12.30;63.38;103154.56;5051824;28;49672;-68
2021/12/15 10:51:53;;;;;;;;;18.50;15.00;;;;;12.33;63.68;103151.16;5033454;28;49735;-72
2021/12/15 10:54:23;;;;;;;;;17.00;14.50;;;;;12.33;63.70;103146.81;5051898;28;49762;-71
2021/12/15 10:56:48;;;;;;;;;17.00;15.25;;;;;12.33;62.71;103152.06;5033505;28;49704;-70
2021/12/15 10:59:14;;;;;;;;;16.25;16.25;;;;;12.30;62.58;103153.66;5051260;28;50546;-73
2021/12/15 11:01:43;;;;;;;;;18.25;15.25;;;;;12.25;62.83;103153.41;5051767;28;49641;-78
2021/12/15 11:04:20;;;;;;;;;16.25;15.25;;;;;12.14;62.71;103151.03;5049536;28;50045;-76
2021/12/15 11:06:59;;;;;;;;;17.50;15.25;;;;;11.83;63.29;103093.25;5051903;28;49813;-73
2021/12/15 11:09:24;;;;;;;;;14.50;14.50;;;;;12.21;63.74;103147.91;5051288;28;49974;-74
2021/12/15 11:11:56;;;;;;;;;18.25;16.75;;;;;12.27;63.24;103146.50;5051291;28;49646;-76
2021/12/15 11:14:29;;;;;;;;;21.75;19.00;;;;;12.20;62.61;103146.09;5051496;28;49798;-68
2021/12/15 11:17:02;;;;;;;;;15.50;12.75;;;;;12.12;63.20;103147.44;5050728;28;49986;-69
2021/12/15 11:19:50;;;;;;;;;16.00;16.00;;;;;12.02;62.85;103122.34;5050656;28;50032;-72
2021/12/15 11:22:49;;;;;;;;;17.75;17.00;;;;;12.24;63.79;103135.78;5047770;28;49644;-71
2021/12/15 11:25:28;;;;;;;;;15.75;13.75;;;;;12.35;63.38;103141.63;5051318;28;49799;-69
2021/12/15 11:28:22;;;;;;;;;13.00;11.00;;;;;12.36;62.08;103135.56;5033147;28;49994;-69
2021/12/15 11:30:56;;;;;;;;;14.75;14.75;;;;;12.23;62.71;103141.88;5052277;28;50350;-69
2021/12/15 11:33:24;;;;;;;;;16.75;16.25;;;;;12.22;62.36;103132.19;5049085;28;49711;-68
2021/12/15 11:35:55;;;;;;;;;14.25;12.50;;;;;12.17;62.47;103125.78;5051381;28;49794;-70
2021/12/15 11:39:07;;;;;;;;;15.75;13.75;;;;;12.21;63.48;103129.47;5051056;28;49912;-69
2021/12/15 11:41:39;;;;;;;;;15.25;12.00;;;;;12.30;62.34;103135.22;5028717;28;50106;-69
2021/12/15 11:44:15;;;;;;;;;27.00;20.25;;;;;12.20;62.43;103125.94;5051048;28;49738;-70
2021/12/15 11:46:50;;;;;;;;;16.50;16.25;;;;;12.21;63.01;103116.31;5051067;28;49791;-68
2021/12/15 11:49:37;;;;;;;;;18.25;13.00;;;;;12.33;62.56;103116.94;5049806;28;50678;-68
2021/12/15 11:52:06;;;;;;;;;10.75;10.75;;;;;12.38;62.23;103133.88;5032575;28;51815;-66
2021/12/15 11:54:44;;;;;;;;;13.25;12.00;;;;;12.35;62.16;103131.06;5050843;28;50050;-64
2021/12/15 11:57:26;;;;;;;;;14.00;14.00;;;;;12.36;61.76;103121.47;5050490;28;49998;-68
2021/12/15 11:59:55;;;;;;;;;12.75;12.75;;;;;12.40;61.91;103123.44;5032751;28;50089;-63
2021/12/15 12:02:26;;;;;;;;;18.25;16.75;;;;;12.46;62.50;103129.91;5049848;28;50542;-63
2021/12/15 12:04:53;;;;;;;;;15.50;13.00;;;;;12.50;62.40;103126.59;5050707;28;49841;-74
2021/12/15 12:07:37;;;;;;;;;18.50;14.25;;;;;12.41;61.77;103112.06;5050828;28;49819;-72
2021/12/15 12:10:09;;;;;;;;;15.00;12.50;;;;;12.42;61.92;103117.41;5048291;28;49946;-73
2021/12/15 12:12:41;;;;;;;;;14.00;14.00;;;;;12.31;62.05;103102.78;5049124;28;50570;-75
2021/12/15 12:15:16;;;;;;;;;15.75;14.00;;;;;12.46;62.07;103113.22;5050533;28;49651;-73
2021/12/15 12:17:46;;;;;;;;;15.00;13.50;;;;;12.47;61.56;103115.91;5050810;28;49967;-67
2021/12/15 12:20:17;;;;;;;;;13.75;12.25;;;;;12.43;61.55;103116.56;5034509;28;49792;-74
2021/12/15 12:22:45;;;;;;;;;12.00;11.00;;;;;12.49;61.70;103118.63;5051988;28;49867;-68